Pagrindinis puslapis
METAR-TAF:

METAR-TAF

Oro uostai :

Guilin, Kinija

platuma: 25-20N, ilguma: 110-18E, Aukštis: 166 m

Dabartinis oras

Ataskaita buvo paskelbta 34 minutes, ne 17:00 UTC
Ramus vėjas
Temperatūra 20°C
Drėgmė 100%
Slėgis 1013 hPa
Matomumas: 7000 m
Mažai debesys ne aukštis 500 ft
Išsisklaidę debesys ne aukštis 2600 ft
Apsiniaukę ne aukštis 4300 ft

METAR: ZGKL 241700Z 00000MPS 7000 FEW005 SCT026 OVC043 20/20 Q1013 NOSIG

Laikas: 01:34 (17:34 UTC)

Prognozė

Ataskaita buvo paskelbta 8 valandos ir 26 minutes, ne 09:08 UTC
Prognozė galioja nuo 24 metu 12 UTC su 25 metu 12 UTC
Vėjas 6 kt iš Šiaurės Rytų
Matomumas: 6000 m
Mažai debesys ne aukštis 1000 ft
Išsisklaidę debesys ne aukštis 2000 ft
Apsiniaukę ne aukštis 4000 ft
lietus

TAF: ZGKL 240908Z 2412/2512 04003MPS 6000 -RA FEW010 SCT020 OVC040 TX26/2507Z TN19/2422Z

Orai ataskaitas ir orų prognozės (METAR, TAF).

turimą stotys yra geltonos ir raudonos taškus žemėlapyje.

Perkelti pele per norėdami pamatyti stoties vardą.

Tada spustelėkite, norėdami matyti oro stebėjimo ir prognozės.

Norėdami pakeisti žemėlapį: spustelėkite ant žalios mygtukų su juodo kryžiaus žemyn,; žalią mygtuką su brūkšneliu, jei norite nutolinti; arba žalių rodyklių gretimoms žemėlapius.


METAR-TAF: